Terminal Aerodrome Forecast
Issued by NWS Charleston, SC

Home | Current Version | Previous Version | Text Only | Print | Product List | Glossary On
Versions: 1 2 3 4 5 6 7 8 9 10 11 12 13
829
FTUS42 KCHS 291739
TAFCHS
TAF
KCHS 291739Z 2918/3018 21010KT P6SM SCT035
     FM300100 VRB04KT P6SM FEW040
     FM301500 25007KT P6SM FEW050=

USA.gov is the U.S. government's official web portal to all federal, state and local government web resources and services.